sensor_id;sensor_type;location;lat;lon;timestamp;pressure;altitude;pressure_sealevel;temperature;humidity
7480;BME280;3781;42.272;22.658;2023-02-15T00:00:53;95803.63;;;-1.65;100.00
7480;BME280;3781;42.272;22.658;2023-02-15T00:03:20;95790.53;;;-1.49;100.00
7480;BME280;3781;42.272;22.658;2023-02-15T00:05:48;95776.94;;;-1.48;100.00
7480;BME280;3781;42.272;22.658;2023-02-15T00:08:15;95776.50;;;-1.30;100.00
7480;BME280;3781;42.272;22.658;2023-02-15T00:10:41;95741.25;;;-1.47;100.00
7480;BME280;3781;42.272;22.658;2023-02-15T00:13:08;95777.84;;;-1.14;100.00
7480;BME280;3781;42.272;22.658;2023-02-15T00:15:35;95756.88;;;-1.25;100.00
7480;BME280;3781;42.272;22.658;2023-02-15T00:18:02;95769.53;;;-1.22;100.00
7480;BME280;3781;42.272;22.658;2023-02-15T00:20:28;95772.81;;;-1.17;100.00
7480;BME280;3781;42.272;22.658;2023-02-15T00:22:56;95736.78;;;-1.39;100.00
7480;BME280;3781;42.272;22.658;2023-02-15T00:25:23;95782.19;;;-1.19;100.00
7480;BME280;3781;42.272;22.658;2023-02-15T00:27:50;95781.19;;;-1.12;100.00
7480;BME280;3781;42.272;22.658;2023-02-15T00:30:17;95793.66;;;-1.00;100.00
7480;BME280;3781;42.272;22.658;2023-02-15T00:32:44;95762.13;;;-0.96;100.00
7480;BME280;3781;42.272;22.658;2023-02-15T00:35:10;95790.13;;;-0.62;100.00
7480;BME280;3781;42.272;22.658;2023-02-15T00:37:57;95788.44;;;-0.62;100.00
7480;BME280;3781;42.272;22.658;2023-02-15T00:40:24;95769.44;;;-0.84;100.00
7480;BME280;3781;42.272;22.658;2023-02-15T00:42:50;95789.34;;;-0.64;100.00
7480;BME280;3781;42.272;22.658;2023-02-15T00:45:17;95790.91;;;-0.59;100.00
7480;BME280;3781;42.272;22.658;2023-02-15T00:47:44;95785.47;;;-0.79;100.00
7480;BME280;3781;42.272;22.658;2023-02-15T00:50:11;95798.81;;;-0.68;100.00
7480;BME280;3781;42.272;22.658;2023-02-15T00:52:37;95792.84;;;-0.68;100.00
7480;BME280;3781;42.272;22.658;2023-02-15T00:55:06;95777.03;;;-0.81;100.00
7480;BME280;3781;42.272;22.658;2023-02-15T00:57:33;95792.09;;;-0.72;100.00
7480;BME280;3781;42.272;22.658;2023-02-15T01:00:00;95792.09;;;-0.72;100.00
7480;BME280;3781;42.272;22.658;2023-02-15T01:02:26;95784.84;;;-0.89;100.00
7480;BME280;3781;42.272;22.658;2023-02-15T01:04:53;95780.59;;;-0.88;100.00
7480;BME280;3781;42.272;22.658;2023-02-15T01:07:20;95784.16;;;-0.95;100.00
7480;BME280;3781;42.272;22.658;2023-02-15T01:09:46;95773.16;;;-0.97;100.00
7480;BME280;3781;42.272;22.658;2023-02-15T01:12:14;95773.28;;;-1.02;100.00
7480;BME280;3781;42.272;22.658;2023-02-15T01:14:41;95774.75;;;-0.93;100.00
7480;BME280;3781;42.272;22.658;2023-02-15T01:17:08;95769.19;;;-1.07;100.00
7480;BME280;3781;42.272;22.658;2023-02-15T01:19:35;95764.69;;;-0.98;100.00
7480;BME280;3781;42.272;22.658;2023-02-15T01:22:01;95767.34;;;-1.02;100.00
7480;BME280;3781;42.272;22.658;2023-02-15T01:24:28;95768.28;;;-1.05;100.00
7480;BME280;3781;42.272;22.658;2023-02-15T01:26:55;95758.09;;;-1.06;100.00
7480;BME280;3781;42.272;22.658;2023-02-15T01:29:26;95762.38;;;-1.08;100.00
7480;BME280;3781;42.272;22.658;2023-02-15T01:31:54;95758.75;;;-0.98;100.00
7480;BME280;3781;42.272;22.658;2023-02-15T01:34:31;95769.78;;;-0.98;100.00
7480;BME280;3781;42.272;22.658;2023-02-15T01:37:12;95766.41;;;-0.98;100.00
7480;BME280;3781;42.272;22.658;2023-02-15T01:43:01;95768.47;;;-0.80;100.00
7480;BME280;3781;42.272;22.658;2023-02-15T01:45:30;95771.81;;;-0.77;100.00
7480;BME280;3781;42.272;22.658;2023-02-15T01:47:59;95730.19;;;-1.46;100.00
7480;BME280;3781;42.272;22.658;2023-02-15T01:50:30;95759.84;;;-1.43;100.00
7480;BME280;3781;42.272;22.658;2023-02-15T01:53:05;95761.22;;;-1.30;100.00
7480;BME280;3781;42.272;22.658;2023-02-15T01:55:33;95729.19;;;-1.40;100.00
7480;BME280;3781;42.272;22.658;2023-02-15T01:58:03;95762.91;;;-1.29;100.00
7480;BME280;3781;42.272;22.658;2023-02-15T02:00:31;95761.91;;;-1.24;100.00
7480;BME280;3781;42.272;22.658;2023-02-15T02:02:59;95759.72;;;-1.37;100.00
7480;BME280;3781;42.272;22.658;2023-02-15T02:05:27;95768.41;;;-1.47;100.00
7480;BME280;3781;42.272;22.658;2023-02-15T02:07:56;95770.31;;;-1.56;100.00
7480;BME280;3781;42.272;22.658;2023-02-15T02:10:24;95767.03;;;-1.61;100.00
7480;BME280;3781;42.272;22.658;2023-02-15T02:12:53;95768.50;;;-1.50;100.00
7480;BME280;3781;42.272;22.658;2023-02-15T02:15:25;95771.56;;;-1.36;100.00
7480;BME280;3781;42.272;22.658;2023-02-15T02:18:04;95767.09;;;-1.27;100.00
7480;BME280;3781;42.272;22.658;2023-02-15T02:20:53;95772.75;;;-1.14;100.00
7480;BME280;3781;42.272;22.658;2023-02-15T02:23:30;95767.44;;;-1.05;100.00
7480;BME280;3781;42.272;22.658;2023-02-15T02:29:40;95756.59;;;-1.13;100.00
7480;BME280;3781;42.272;22.658;2023-02-15T02:32:47;95772.56;;;-1.07;100.00
7480;BME280;3781;42.272;22.658;2023-02-15T02:35:19;95771.47;;;-0.97;100.00
7480;BME280;3781;42.272;22.658;2023-02-15T02:37:57;95770.03;;;-1.08;100.00
7480;BME280;3781;42.272;22.658;2023-02-15T02:40:33;95767.44;;;-1.05;100.00
7480;BME280;3781;42.272;22.658;2023-02-15T02:43:05;95767.44;;;-1.05;100.00
7480;BME280;3781;42.272;22.658;2023-02-15T02:45:41;95764.25;;;-1.13;100.00
7480;BME280;3781;42.272;22.658;2023-02-15T02:48:14;95749.06;;;-1.19;100.00
7480;BME280;3781;42.272;22.658;2023-02-15T02:50:42;95768.69;;;-1.23;100.00
7480;BME280;3781;42.272;22.658;2023-02-15T02:53:09;95772.94;;;-1.23;100.00
7480;BME280;3781;42.272;22.658;2023-02-15T02:55:41;95766.25;;;-1.27;100.00
7480;BME280;3781;42.272;22.658;2023-02-15T02:58:11;95740.50;;;-1.52;100.00
7480;BME280;3781;42.272;22.658;2023-02-15T03:00:47;95744.09;;;-1.61;100.00
7480;BME280;3781;42.272;22.658;2023-02-15T03:03:20;95775.25;;;-1.49;100.00
7480;BME280;3781;42.272;22.658;2023-02-15T03:05:53;95780.22;;;-1.43;100.00
7480;BME280;3781;42.272;22.658;2023-02-15T03:08:23;95776.75;;;-1.39;100.00
7480;BME280;3781;42.272;22.658;2023-02-15T03:10:55;95769.91;;;-1.37;100.00
7480;BME280;3781;42.272;22.658;2023-02-15T03:13:23;95771.41;;;-1.30;100.00
7480;BME280;3781;42.272;22.658;2023-02-15T03:15:51;95774.50;;;-1.16;100.00
7480;BME280;3781;42.272;22.658;2023-02-15T03:18:41;95775.94;;;-1.06;100.00
7480;BME280;3781;42.272;22.658;2023-02-15T03:21:09;95771.63;;;-1.03;100.00
7480;BME280;3781;42.272;22.658;2023-02-15T03:23:49;95752.94;;;-1.38;100.00
7480;BME280;3781;42.272;22.658;2023-02-15T03:26:20;95787.66;;;-1.34;100.00
7480;BME280;3781;42.272;22.658;2023-02-15T03:28:50;95782.56;;;-1.34;100.00
7480;BME280;3781;42.272;22.658;2023-02-15T03:31:18;95795.28;;;-1.34;100.00
7480;BME280;3781;42.272;22.658;2023-02-15T03:33:58;95771.72;;;-1.42;100.00
7480;BME280;3781;42.272;22.658;2023-02-15T03:36:32;95800.72;;;-1.13;100.00
7480;BME280;3781;42.272;22.658;2023-02-15T03:39:08;95803.47;;;-1.20;100.00
7480;BME280;3781;42.272;22.658;2023-02-15T03:41:41;95793.19;;;-1.54;100.00
7480;BME280;3781;42.272;22.658;2023-02-15T03:44:16;95761.03;;;-1.96;100.00
7480;BME280;3781;42.272;22.658;2023-02-15T03:46:50;95790.44;;;-1.83;100.00
7480;BME280;3781;42.272;22.658;2023-02-15T03:49:22;95811.31;;;-2.07;100.00
7480;BME280;3781;42.272;22.658;2023-02-15T03:51:54;95776.75;;;-2.19;100.00
7480;BME280;3781;42.272;22.658;2023-02-15T03:54:24;95804.94;;;-1.85;100.00
7480;BME280;3781;42.272;22.658;2023-02-15T03:57:18;95811.00;;;-1.92;100.00
7480;BME280;3781;42.272;22.658;2023-02-15T04:00:04;95809.13;;;-1.83;100.00
7480;BME280;3781;42.272;22.658;2023-02-15T04:02:58;95818.59;;;-1.91;100.00
7480;BME280;3781;42.272;22.658;2023-02-15T04:05:30;95817.97;;;-2.00;100.00
7480;BME280;3781;42.272;22.658;2023-02-15T04:07:57;95820.47;;;-1.99;100.00
7480;BME280;3781;42.272;22.658;2023-02-15T04:10:24;95823.94;;;-2.03;100.00
7480;BME280;3781;42.272;22.658;2023-02-15T04:13:07;95791.88;;;-2.13;100.00
7480;BME280;3781;42.272;22.658;2023-02-15T04:15:34;95827.78;;;-1.84;100.00
7480;BME280;3781;42.272;22.658;2023-02-15T04:18:18;95826.66;;;-1.71;100.00
7480;BME280;3781;42.272;22.658;2023-02-15T04:20:46;95826.22;;;-1.49;100.00
7480;BME280;3781;42.272;22.658;2023-02-15T04:23:31;95825.81;;;-1.31;100.00
7480;BME280;3781;42.272;22.658;2023-02-15T04:26:15;95834.75;;;-1.14;100.00
7480;BME280;3781;42.272;22.658;2023-02-15T04:28:42;95818.63;;;-1.14;100.00
7480;BME280;3781;42.272;22.658;2023-02-15T04:31:09;95841.72;;;-0.85;100.00
7480;BME280;3781;42.272;22.658;2023-02-15T04:33:35;95805.19;;;-0.86;100.00
7480;BME280;3781;42.272;22.658;2023-02-15T04:36:05;95827.34;;;-0.54;100.00
7480;BME280;3781;42.272;22.658;2023-02-15T04:38:31;95834.03;;;-0.50;100.00
7480;BME280;3781;42.272;22.658;2023-02-15T04:40:58;95812.91;;;-0.55;100.00
7480;BME280;3781;42.272;22.658;2023-02-15T04:43:25;95842.34;;;-0.42;100.00
7480;BME280;3781;42.272;22.658;2023-02-15T04:45:52;95832.13;;;-0.42;100.00
7480;BME280;3781;42.272;22.658;2023-02-15T04:48:18;95846.31;;;-0.32;100.00
7480;BME280;3781;42.272;22.658;2023-02-15T04:50:45;95813.47;;;-0.44;100.00
7480;BME280;3781;42.272;22.658;2023-02-15T04:53:13;95836.69;;;-0.21;100.00
7480;BME280;3781;42.272;22.658;2023-02-15T04:55:41;95843.50;;;-0.21;100.00
7480;BME280;3781;42.272;22.658;2023-02-15T04:58:08;95833.81;;;-0.41;100.00
7480;BME280;3781;42.272;22.658;2023-02-15T05:00:35;95844.63;;;-0.31;100.00
7480;BME280;3781;42.272;22.658;2023-02-15T05:03:02;95797.03;;;-0.66;100.00
7480;BME280;3781;42.272;22.658;2023-02-15T05:05:29;95856.13;;;-0.49;100.00
7480;BME280;3781;42.272;22.658;2023-02-15T05:07:55;95855.56;;;-0.60;100.00
7480;BME280;3781;42.272;22.658;2023-02-15T05:10:23;95866.03;;;-0.70;100.00
7480;BME280;3781;42.272;22.658;2023-02-15T05:12:50;95875.53;;;-0.77;100.00
7480;BME280;3781;42.272;22.658;2023-02-15T05:15:17;95875.47;;;-0.74;100.00
7480;BME280;3781;42.272;22.658;2023-02-15T05:17:44;95881.13;;;-0.98;100.00
7480;BME280;3781;42.272;22.658;2023-02-15T05:20:11;95877.63;;;-0.94;100.00
7480;BME280;3781;42.272;22.658;2023-02-15T05:22:38;95874.50;;;-1.05;100.00
7480;BME280;3781;42.272;22.658;2023-02-15T05:25:06;95882.53;;;-0.85;100.00
7480;BME280;3781;42.272;22.658;2023-02-15T05:27:51;95877.94;;;-0.71;100.00
7480;BME280;3781;42.272;22.658;2023-02-15T05:30:36;95884.84;;;-0.74;100.00
7480;BME280;3781;42.272;22.658;2023-02-15T05:33:05;95884.03;;;-0.78;100.00
7480;BME280;3781;42.272;22.658;2023-02-15T05:35:31;95867.50;;;-0.97;100.00
7480;BME280;3781;42.272;22.658;2023-02-15T05:37:58;95884.88;;;-0.78;100.00
7480;BME280;3781;42.272;22.658;2023-02-15T05:40:25;95888.03;;;-0.66;100.00
7480;BME280;3781;42.272;22.658;2023-02-15T05:42:53;95884.38;;;-0.56;100.00
7480;BME280;3781;42.272;22.658;2023-02-15T05:45:20;95880.63;;;-0.77;100.00
7480;BME280;3781;42.272;22.658;2023-02-15T05:47:47;95888.78;;;-0.63;100.00
7480;BME280;3781;42.272;22.658;2023-02-15T05:50:13;95884.25;;;-0.52;100.00
7480;BME280;3781;42.272;22.658;2023-02-15T05:52:40;95886.38;;;-0.34;100.00
7480;BME280;3781;42.272;22.658;2023-02-15T05:55:08;95877.22;;;-0.42;100.00
7480;BME280;3781;42.272;22.658;2023-02-15T05:57:35;95859.25;;;-0.38;100.00
7480;BME280;3781;42.272;22.658;2023-02-15T06:00:04;95877.97;;;-0.37;100.00
7480;BME280;3781;42.272;22.658;2023-02-15T06:02:33;95901.34;;;-0.22;100.00
7480;BME280;3781;42.272;22.658;2023-02-15T06:05:00;95913.09;;;-0.15;100.00
7480;BME280;3781;42.272;22.658;2023-02-15T06:07:27;95900.84;;;-0.01;100.00
7480;BME280;3781;42.272;22.658;2023-02-15T06:09:54;95900.31;;;0.18;100.00
7480;BME280;3781;42.272;22.658;2023-02-15T06:12:20;95896.66;;;0.28;100.00
7480;BME280;3781;42.272;22.658;2023-02-15T06:14:47;95895.31;;;0.15;100.00
7480;BME280;3781;42.272;22.658;2023-02-15T06:17:15;95896.97;;;0.16;100.00
7480;BME280;3781;42.272;22.658;2023-02-15T06:19:42;95901.41;;;0.11;100.00
7480;BME280;3781;42.272;22.658;2023-02-15T06:22:09;95901.53;;;0.37;100.00
7480;BME280;3781;42.272;22.658;2023-02-15T06:24:39;95903.13;;;0.70;100.00
7480;BME280;3781;42.272;22.658;2023-02-15T06:27:07;95896.59;;;0.89;100.00
7480;BME280;3781;42.272;22.658;2023-02-15T06:29:34;95886.41;;;1.15;100.00
7480;BME280;3781;42.272;22.658;2023-02-15T06:32:01;95897.28;;;1.49;100.00
7480;BME280;3781;42.272;22.658;2023-02-15T06:34:29;95899.56;;;1.59;100.00
7480;BME280;3781;42.272;22.658;2023-02-15T06:36:56;95890.13;;;1.59;100.00
7480;BME280;3781;42.272;22.658;2023-02-15T06:39:22;95897.78;;;1.85;100.00
7480;BME280;3781;42.272;22.658;2023-02-15T06:41:49;95898.41;;;1.67;99.22
7480;BME280;3781;42.272;22.658;2023-02-15T06:44:16;95883.13;;;1.64;95.90
7480;BME280;3781;42.272;22.658;2023-02-15T06:46:43;95905.03;;;1.99;90.73
7480;BME280;3781;42.272;22.658;2023-02-15T06:49:09;95905.16;;;1.43;90.69
7480;BME280;3781;42.272;22.658;2023-02-15T06:51:37;95901.34;;;1.01;94.71
7480;BME280;3781;42.272;22.658;2023-02-15T06:54:04;95913.97;;;0.78;100.00
7480;BME280;3781;42.272;22.658;2023-02-15T06:56:31;95910.63;;;0.76;100.00
7480;BME280;3781;42.272;22.658;2023-02-15T06:58:58;95908.16;;;1.01;100.00
7480;BME280;3781;42.272;22.658;2023-02-15T07:01:25;95899.69;;;1.28;100.00
7480;BME280;3781;42.272;22.658;2023-02-15T07:03:51;95901.97;;;1.35;100.00
7480;BME280;3781;42.272;22.658;2023-02-15T07:06:18;95899.63;;;1.29;100.00
7480;BME280;3781;42.272;22.658;2023-02-15T07:08:46;95907.88;;;1.37;100.00
7480;BME280;3781;42.272;22.658;2023-02-15T07:11:13;95915.53;;;1.39;100.00
7480;BME280;3781;42.272;22.658;2023-02-15T07:13:57;95907.59;;;1.46;100.00
7480;BME280;3781;42.272;22.658;2023-02-15T07:16:24;95885.63;;;1.41;100.00
7480;BME280;3781;42.272;22.658;2023-02-15T07:18:50;95913.50;;;1.48;100.00
7480;BME280;3781;42.272;22.658;2023-02-15T07:21:17;95909.31;;;1.46;100.00
7480;BME280;3781;42.272;22.658;2023-02-15T07:23:44;95905.53;;;1.84;100.00
7480;BME280;3781;42.272;22.658;2023-02-15T07:26:12;95908.47;;;2.93;93.79
7480;BME280;3781;42.272;22.658;2023-02-15T07:28:39;95902.97;;;3.89;87.36
7480;BME280;3781;42.272;22.658;2023-02-15T07:31:05;95903.56;;;4.16;82.22
7480;BME280;3781;42.272;22.658;2023-02-15T07:33:33;95907.31;;;5.42;78.91
7480;BME280;3781;42.272;22.658;2023-02-15T07:36:02;95870.31;;;7.11;68.01
7480;BME280;3781;42.272;22.658;2023-02-15T07:38:31;95897.88;;;9.47;58.43
7480;BME280;3781;42.272;22.658;2023-02-15T07:40:58;95891.75;;;11.41;51.60
7480;BME280;3781;42.272;22.658;2023-02-15T07:43:26;95909.88;;;12.02;48.16
7480;BME280;3781;42.272;22.658;2023-02-15T07:45:53;95911.63;;;12.60;46.40
7480;BME280;3781;42.272;22.658;2023-02-15T07:48:20;95902.75;;;13.31;43.85
7480;BME280;3781;42.272;22.658;2023-02-15T07:50:47;95899.16;;;13.76;41.73
7480;BME280;3781;42.272;22.658;2023-02-15T07:53:14;95912.56;;;13.60;42.24
7480;BME280;3781;42.272;22.658;2023-02-15T07:55:41;95905.59;;;14.88;40.22
7480;BME280;3781;42.272;22.658;2023-02-15T07:58:07;95901.38;;;15.87;37.75
7480;BME280;3781;42.272;22.658;2023-02-15T08:00:35;95903.44;;;15.44;38.43
7480;BME280;3781;42.272;22.658;2023-02-15T08:03:22;95906.97;;;16.61;36.13
7480;BME280;3781;42.272;22.658;2023-02-15T08:05:56;95900.91;;;16.70;35.40
7480;BME280;3781;42.272;22.658;2023-02-15T08:08:25;95895.31;;;17.38;33.98
7480;BME280;3781;42.272;22.658;2023-02-15T08:10:59;95893.63;;;17.47;33.34
7480;BME280;3781;42.272;22.658;2023-02-15T08:13:43;95899.41;;;18.32;31.99
7480;BME280;3781;42.272;22.658;2023-02-15T08:16:22;95890.25;;;17.27;33.85
7480;BME280;3781;42.272;22.658;2023-02-15T08:18:48;95869.97;;;16.64;34.06
7480;BME280;3781;42.272;22.658;2023-02-15T08:21:15;95861.19;;;13.72;39.03
7480;BME280;3781;42.272;22.658;2023-02-15T08:23:42;95889.06;;;12.37;41.47
7480;BME280;3781;42.272;22.658;2023-02-15T08:26:09;95869.88;;;10.95;43.59
7480;BME280;3781;42.272;22.658;2023-02-15T08:28:36;95892.09;;;10.09;46.15
7480;BME280;3781;42.272;22.658;2023-02-15T08:31:06;95880.59;;;10.52;44.99
7480;BME280;3781;42.272;22.658;2023-02-15T08:33:35;95880.78;;;10.62;45.67
7480;BME280;3781;42.272;22.658;2023-02-15T08:36:03;95877.56;;;10.07;45.97
7480;BME280;3781;42.272;22.658;2023-02-15T08:38:30;95892.72;;;10.39;45.92
7480;BME280;3781;42.272;22.658;2023-02-15T08:40:57;95889.94;;;10.93;44.45
7480;BME280;3781;42.272;22.658;2023-02-15T08:43:24;95887.59;;;9.99;46.13
7480;BME280;3781;42.272;22.658;2023-02-15T08:45:50;95862.25;;;9.22;48.04
7480;BME280;3781;42.272;22.658;2023-02-15T08:48:17;95882.94;;;9.09;48.65
7480;BME280;3781;42.272;22.658;2023-02-15T08:50:46;95862.41;;;8.50;50.28
7480;BME280;3781;42.272;22.658;2023-02-15T08:53:12;95876.09;;;8.94;49.07
7480;BME280;3781;42.272;22.658;2023-02-15T08:55:39;95877.50;;;9.41;48.20
7480;BME280;3781;42.272;22.658;2023-02-15T08:58:06;95874.13;;;10.71;46.15
7480;BME280;3781;42.272;22.658;2023-02-15T09:00:32;95874.03;;;10.85;45.30
7480;BME280;3781;42.272;22.658;2023-02-15T09:02:59;95865.63;;;10.43;45.10
7480;BME280;3781;42.272;22.658;2023-02-15T09:05:26;95887.84;;;10.60;45.55
7480;BME280;3781;42.272;22.658;2023-02-15T09:07:54;95888.03;;;11.20;44.16
7480;BME280;3781;42.272;22.658;2023-02-15T09:10:21;95881.06;;;11.69;43.98
7480;BME280;3781;42.272;22.658;2023-02-15T09:12:48;95884.75;;;10.93;44.31
7480;BME280;3781;42.272;22.658;2023-02-15T09:15:16;95888.38;;;10.78;43.98
7480;BME280;3781;42.272;22.658;2023-02-15T09:17:43;95883.34;;;12.78;40.12
7480;BME280;3781;42.272;22.658;2023-02-15T09:20:10;95882.69;;;13.53;39.52
7480;BME280;3781;42.272;22.658;2023-02-15T09:22:37;95858.69;;;12.71;40.32
7480;BME280;3781;42.272;22.658;2023-02-15T09:25:05;95892.69;;;14.34;37.84
7480;BME280;3781;42.272;22.658;2023-02-15T09:27:32;95878.09;;;15.54;35.71
7480;BME280;3781;42.272;22.658;2023-02-15T09:29:59;95876.03;;;14.97;35.97
7480;BME280;3781;42.272;22.658;2023-02-15T09:32:26;95880.00;;;14.18;37.20
7480;BME280;3781;42.272;22.658;2023-02-15T09:34:53;95874.97;;;13.52;38.63
7480;BME280;3781;42.272;22.658;2023-02-15T09:37:19;95875.13;;;13.17;39.08
7480;BME280;3781;42.272;22.658;2023-02-15T09:39:46;95868.56;;;11.25;42.63
7480;BME280;3781;42.272;22.658;2023-02-15T09:42:43;95871.81;;;11.89;42.04
7480;BME280;3781;42.272;22.658;2023-02-15T09:45:26;95862.09;;;12.15;41.47
7480;BME280;3781;42.272;22.658;2023-02-15T09:48:19;95881.53;;;12.56;41.06
7480;BME280;3781;42.272;22.658;2023-02-15T09:51:01;95873.53;;;12.36;40.86
7480;BME280;3781;42.272;22.658;2023-02-15T09:53:42;95867.03;;;12.98;39.11
7480;BME280;3781;42.272;22.658;2023-02-15T09:56:20;95868.94;;;13.29;39.31
7480;BME280;3781;42.272;22.658;2023-02-15T09:58:57;95867.69;;;15.73;35.42
7480;BME280;3781;42.272;22.658;2023-02-15T10:01:33;95867.16;;;14.79;36.08
7480;BME280;3781;42.272;22.658;2023-02-15T10:04:23;95869.75;;;13.95;37.61
7480;BME280;3781;42.272;22.658;2023-02-15T10:06:58;95858.09;;;16.21;34.00
7480;BME280;3781;42.272;22.658;2023-02-15T10:09:36;95853.78;;;16.01;34.67
7480;BME280;3781;42.272;22.658;2023-02-15T10:12:20;95823.06;;;13.81;37.35
7480;BME280;3781;42.272;22.658;2023-02-15T10:15:21;95843.00;;;14.13;37.26
7480;BME280;3781;42.272;22.658;2023-02-15T10:18:05;95834.72;;;14.70;36.47
7480;BME280;3781;42.272;22.658;2023-02-15T10:20:41;95837.53;;;14.78;35.63
7480;BME280;3781;42.272;22.658;2023-02-15T10:23:22;95812.91;;;15.51;34.96
7480;BME280;3781;42.272;22.658;2023-02-15T10:26:00;95820.34;;;16.89;32.48
7480;BME280;3781;42.272;22.658;2023-02-15T10:28:43;95831.59;;;16.34;33.09
7480;BME280;3781;42.272;22.658;2023-02-15T10:31:19;95837.78;;;15.85;34.41
7480;BME280;3781;42.272;22.658;2023-02-15T10:33:58;95832.69;;;17.43;32.29
7480;BME280;3781;42.272;22.658;2023-02-15T10:36:40;95835.16;;;17.54;31.63
7480;BME280;3781;42.272;22.658;2023-02-15T10:39:18;95813.16;;;17.55;31.75
7480;BME280;3781;42.272;22.658;2023-02-15T10:41:52;95823.28;;;16.77;32.60
7480;BME280;3781;42.272;22.658;2023-02-15T10:44:33;95818.31;;;16.64;33.05
7480;BME280;3781;42.272;22.658;2023-02-15T10:47:15;95797.63;;;15.46;33.66
7480;BME280;3781;42.272;22.658;2023-02-15T10:50:05;95811.41;;;17.46;31.42
7480;BME280;3781;42.272;22.658;2023-02-15T10:52:43;95815.13;;;19.02;29.29
7480;BME280;3781;42.272;22.658;2023-02-15T10:55:24;95812.56;;;19.18;29.09
7480;BME280;3781;42.272;22.658;2023-02-15T10:57:59;95803.22;;;18.47;29.61
7480;BME280;3781;42.272;22.658;2023-02-15T11:00:36;95766.69;;;18.95;29.08
7480;BME280;3781;42.272;22.658;2023-02-15T11:03:24;95800.19;;;20.02;28.00
7480;BME280;3781;42.272;22.658;2023-02-15T11:06:01;95792.03;;;19.30;28.49
7480;BME280;3781;42.272;22.658;2023-02-15T11:08:32;95796.50;;;19.71;27.96
7480;BME280;3781;42.272;22.658;2023-02-15T11:11:01;95789.66;;;15.86;33.07
7480;BME280;3781;42.272;22.658;2023-02-15T11:13:32;95771.81;;;17.30;31.65
7480;BME280;3781;42.272;22.658;2023-02-15T11:16:02;95778.03;;;16.92;32.39
7480;BME280;3781;42.272;22.658;2023-02-15T11:18:34;95782.06;;;15.64;33.47
7480;BME280;3781;42.272;22.658;2023-02-15T11:21:07;95757.09;;;15.79;33.48
7480;BME280;3781;42.272;22.658;2023-02-15T11:23:40;95776.06;;;15.43;33.92
7480;BME280;3781;42.272;22.658;2023-02-15T11:26:13;95766.63;;;15.61;34.40
7480;BME280;3781;42.272;22.658;2023-02-15T11:28:47;95769.28;;;15.90;33.19
7480;BME280;3781;42.272;22.658;2023-02-15T11:31:17;95768.00;;;17.15;31.84
7480;BME280;3781;42.272;22.658;2023-02-15T11:33:49;95743.28;;;18.15;30.04
7480;BME280;3781;42.272;22.658;2023-02-15T11:36:21;95766.09;;;18.50;29.48
7480;BME280;3781;42.272;22.658;2023-02-15T11:38:54;95756.47;;;18.66;29.44
7480;BME280;3781;42.272;22.658;2023-02-15T11:41:24;95758.88;;;18.17;30.32
7480;BME280;3781;42.272;22.658;2023-02-15T11:43:57;95714.09;;;18.26;29.88
7480;BME280;3781;42.272;22.658;2023-02-15T11:46:26;95734.09;;;20.52;27.17
7480;BME280;3781;42.272;22.658;2023-02-15T11:48:55;95744.94;;;19.77;27.97
7480;BME280;3781;42.272;22.658;2023-02-15T11:51:24;95722.13;;;19.43;27.85
7480;BME280;3781;42.272;22.658;2023-02-15T11:53:53;95728.50;;;18.40;29.21
7480;BME280;3781;42.272;22.658;2023-02-15T11:56:22;95736.28;;;19.42;28.03
7480;BME280;3781;42.272;22.658;2023-02-15T11:58:53;95745.94;;;20.08;27.45
7480;BME280;3781;42.272;22.658;2023-02-15T12:01:27;95726.19;;;20.04;26.86
7480;BME280;3781;42.272;22.658;2023-02-15T12:04:00;95721.00;;;21.30;25.88
7480;BME280;3781;42.272;22.658;2023-02-15T12:06:30;95710.81;;;21.49;25.09
7480;BME280;3781;42.272;22.658;2023-02-15T12:09:03;95733.25;;;21.23;25.79
7480;BME280;3781;42.272;22.658;2023-02-15T12:11:35;95728.19;;;20.97;26.21
7480;BME280;3781;42.272;22.658;2023-02-15T12:14:03;95726.16;;;21.54;24.96
7480;BME280;3781;42.272;22.658;2023-02-15T12:16:39;95727.47;;;21.58;25.29
7480;BME280;3781;42.272;22.658;2023-02-15T12:19:20;95705.91;;;21.46;25.13
7480;BME280;3781;42.272;22.658;2023-02-15T12:21:51;95714.59;;;20.69;25.73
7480;BME280;3781;42.272;22.658;2023-02-15T12:24:21;95716.03;;;19.35;27.06
7480;BME280;3781;42.272;22.658;2023-02-15T12:26:57;95710.84;;;18.06;29.25
7480;BME280;3781;42.272;22.658;2023-02-15T12:29:27;95707.00;;;17.48;30.40
7480;BME280;3781;42.272;22.658;2023-02-15T12:31:56;95682.28;;;18.63;28.47
7480;BME280;3781;42.272;22.658;2023-02-15T12:34:29;95700.06;;;20.73;25.65
7480;BME280;3781;42.272;22.658;2023-02-15T12:37:00;95702.75;;;21.43;25.16
7480;BME280;3781;42.272;22.658;2023-02-15T12:39:29;95691.16;;;20.66;25.76
7480;BME280;3781;42.272;22.658;2023-02-15T12:41:59;95689.53;;;19.44;27.40
7480;BME280;3781;42.272;22.658;2023-02-15T12:44:28;95690.81;;;19.40;28.17
7480;BME280;3781;42.272;22.658;2023-02-15T12:46:57;95675.22;;;19.05;28.03
7480;BME280;3781;42.272;22.658;2023-02-15T12:49:26;95687.06;;;17.73;29.45
7480;BME280;3781;42.272;22.658;2023-02-15T12:51:54;95656.94;;;19.53;27.31
7480;BME280;3781;42.272;22.658;2023-02-15T12:54:37;95671.75;;;20.43;26.48
7480;BME280;3781;42.272;22.658;2023-02-15T12:57:25;95683.72;;;21.25;25.57
7480;BME280;3781;42.272;22.658;2023-02-15T12:59:55;95673.03;;;21.18;25.42
7480;BME280;3781;42.272;22.658;2023-02-15T13:02:27;95674.22;;;18.39;28.59
7480;BME280;3781;42.272;22.658;2023-02-15T13:04:57;95658.44;;;18.98;28.12
7480;BME280;3781;42.272;22.658;2023-02-15T13:07:30;95679.72;;;20.90;26.13
7480;BME280;3781;42.272;22.658;2023-02-15T13:09:58;95661.81;;;21.16;25.03
7480;BME280;3781;42.272;22.658;2023-02-15T13:12:26;95659.66;;;21.42;25.11
7480;BME280;3781;42.272;22.658;2023-02-15T13:14:56;95679.88;;;21.58;25.10
7480;BME280;3781;42.272;22.658;2023-02-15T13:17:26;95675.22;;;21.60;24.81
7480;BME280;3781;42.272;22.658;2023-02-15T13:19:59;95678.91;;;22.04;24.41
7480;BME280;3781;42.272;22.658;2023-02-15T13:22:33;95674.06;;;21.62;24.38
7480;BME280;3781;42.272;22.658;2023-02-15T13:25:03;95685.28;;;21.42;24.92
7480;BME280;3781;42.272;22.658;2023-02-15T13:27:35;95674.97;;;22.00;23.73
7480;BME280;3781;42.272;22.658;2023-02-15T13:30:14;95674.88;;;22.68;23.14
7480;BME280;3781;42.272;22.658;2023-02-15T13:32:44;95669.34;;;20.80;24.88
7480;BME280;3781;42.272;22.658;2023-02-15T13:35:16;95661.75;;;18.41;27.75